sensor_id;sensor_type;location;lat;lon;timestamp;P1;durP1;ratioP1;P2;durP2;ratioP2
13592;SDS011;6867;50.998;4.250;2022-12-07T00:01:16;17.03;;;11.13;;
13592;SDS011;6867;50.998;4.250;2022-12-07T00:03:46;17.83;;;10.40;;
13592;SDS011;6867;50.998;4.250;2022-12-07T00:06:14;15.63;;;10.23;;
13592;SDS011;6867;50.998;4.250;2022-12-07T00:08:42;14.60;;;10.77;;
13592;SDS011;6867;50.998;4.250;2022-12-07T00:11:10;16.30;;;10.33;;
13592;SDS011;6867;50.998;4.250;2022-12-07T00:13:39;12.73;;;9.10;;
13592;SDS011;6867;50.998;4.250;2022-12-07T00:16:07;16.87;;;10.93;;
13592;SDS011;6867;50.998;4.250;2022-12-07T00:18:35;16.77;;;10.73;;
13592;SDS011;6867;50.998;4.250;2022-12-07T00:21:04;14.30;;;9.80;;
13592;SDS011;6867;50.998;4.250;2022-12-07T00:23:32;14.87;;;9.77;;
13592;SDS011;6867;50.998;4.250;2022-12-07T00:26:03;16.40;;;10.40;;
13592;SDS011;6867;50.998;4.250;2022-12-07T00:28:31;15.33;;;9.97;;
13592;SDS011;6867;50.998;4.250;2022-12-07T00:30:59;18.00;;;10.13;;
13592;SDS011;6867;50.998;4.250;2022-12-07T00:33:27;16.57;;;9.70;;
13592;SDS011;6867;50.998;4.250;2022-12-07T00:35:54;14.77;;;9.53;;
13592;SDS011;6867;50.998;4.250;2022-12-07T00:38:23;17.50;;;10.43;;
13592;SDS011;6867;50.998;4.250;2022-12-07T00:40:54;15.90;;;9.60;;
13592;SDS011;6867;50.998;4.250;2022-12-07T00:43:22;21.13;;;10.70;;
13592;SDS011;6867;50.998;4.250;2022-12-07T00:45:48;17.67;;;9.73;;
13592;SDS011;6867;50.998;4.250;2022-12-07T00:48:15;14.17;;;9.97;;
13592;SDS011;6867;50.998;4.250;2022-12-07T00:50:42;18.27;;;10.97;;
13592;SDS011;6867;50.998;4.250;2022-12-07T00:53:08;13.10;;;10.13;;
13592;SDS011;6867;50.998;4.250;2022-12-07T00:55:36;16.13;;;10.10;;
13592;SDS011;6867;50.998;4.250;2022-12-07T00:58:04;15.80;;;10.13;;
13592;SDS011;6867;50.998;4.250;2022-12-07T01:00:31;17.27;;;9.63;;
13592;SDS011;6867;50.998;4.250;2022-12-07T01:02:58;14.47;;;10.33;;
13592;SDS011;6867;50.998;4.250;2022-12-07T01:05:25;14.80;;;9.33;;
13592;SDS011;6867;50.998;4.250;2022-12-07T01:07:52;14.40;;;9.63;;
13592;SDS011;6867;50.998;4.250;2022-12-07T01:10:18;20.17;;;11.03;;
13592;SDS011;6867;50.998;4.250;2022-12-07T01:12:46;14.90;;;9.63;;
13592;SDS011;6867;50.998;4.250;2022-12-07T01:15:13;16.83;;;9.93;;
13592;SDS011;6867;50.998;4.250;2022-12-07T01:17:40;18.30;;;10.83;;
13592;SDS011;6867;50.998;4.250;2022-12-07T01:20:07;15.17;;;9.77;;
13592;SDS011;6867;50.998;4.250;2022-12-07T01:22:35;18.30;;;10.47;;
13592;SDS011;6867;50.998;4.250;2022-12-07T01:25:04;14.90;;;10.33;;
13592;SDS011;6867;50.998;4.250;2022-12-07T01:27:30;15.73;;;10.50;;
13592;SDS011;6867;50.998;4.250;2022-12-07T01:29:59;16.77;;;9.93;;
13592;SDS011;6867;50.998;4.250;2022-12-07T01:32:26;16.07;;;10.53;;
13592;SDS011;6867;50.998;4.250;2022-12-07T01:34:53;20.00;;;11.37;;
13592;SDS011;6867;50.998;4.250;2022-12-07T01:37:20;17.13;;;10.67;;
13592;SDS011;6867;50.998;4.250;2022-12-07T01:39:48;17.63;;;10.30;;
13592;SDS011;6867;50.998;4.250;2022-12-07T01:42:15;17.00;;;10.87;;
13592;SDS011;6867;50.998;4.250;2022-12-07T01:47:50;17.47;;;9.87;;
13592;SDS011;6867;50.998;4.250;2022-12-07T01:50:19;13.70;;;9.77;;
13592;SDS011;6867;50.998;4.250;2022-12-07T01:52:47;18.47;;;10.47;;
13592;SDS011;6867;50.998;4.250;2022-12-07T01:55:16;15.33;;;10.00;;
13592;SDS011;6867;50.998;4.250;2022-12-07T01:57:45;15.47;;;9.63;;
13592;SDS011;6867;50.998;4.250;2022-12-07T02:00:14;15.77;;;9.60;;
13592;SDS011;6867;50.998;4.250;2022-12-07T02:02:43;16.67;;;9.07;;
13592;SDS011;6867;50.998;4.250;2022-12-07T02:05:15;15.13;;;9.37;;
13592;SDS011;6867;50.998;4.250;2022-12-07T02:07:43;13.40;;;8.67;;
13592;SDS011;6867;50.998;4.250;2022-12-07T02:10:12;13.83;;;9.03;;
13592;SDS011;6867;50.998;4.250;2022-12-07T02:12:40;15.00;;;8.23;;
13592;SDS011;6867;50.998;4.250;2022-12-07T02:15:07;20.50;;;9.60;;
13592;SDS011;6867;50.998;4.250;2022-12-07T02:17:36;14.37;;;8.03;;
13592;SDS011;6867;50.998;4.250;2022-12-07T02:20:11;14.53;;;8.67;;
13592;SDS011;6867;50.998;4.250;2022-12-07T02:25:55;11.17;;;7.83;;
13592;SDS011;6867;50.998;4.250;2022-12-07T02:28:35;13.43;;;8.10;;
13592;SDS011;6867;50.998;4.250;2022-12-07T02:31:08;13.00;;;7.23;;
13592;SDS011;6867;50.998;4.250;2022-12-07T02:33:40;16.13;;;8.87;;
13592;SDS011;6867;50.998;4.250;2022-12-07T02:36:12;12.90;;;8.17;;
13592;SDS011;6867;50.998;4.250;2022-12-07T02:38:44;12.90;;;8.23;;
13592;SDS011;6867;50.998;4.250;2022-12-07T02:41:18;10.73;;;7.47;;
13592;SDS011;6867;50.998;4.250;2022-12-07T02:43:51;11.90;;;7.77;;
13592;SDS011;6867;50.998;4.250;2022-12-07T02:46:22;11.37;;;7.20;;
13592;SDS011;6867;50.998;4.250;2022-12-07T02:48:53;13.13;;;7.50;;
13592;SDS011;6867;50.998;4.250;2022-12-07T02:51:21;12.87;;;6.67;;
13592;SDS011;6867;50.998;4.250;2022-12-07T02:53:48;13.73;;;7.17;;
13592;SDS011;6867;50.998;4.250;2022-12-07T02:56:17;11.67;;;7.30;;
13592;SDS011;6867;50.998;4.250;2022-12-07T02:58:53;11.63;;;6.50;;
13592;SDS011;6867;50.998;4.250;2022-12-07T03:01:30;8.00;;;6.47;;
13592;SDS011;6867;50.998;4.250;2022-12-07T03:04:08;10.30;;;6.50;;
13592;SDS011;6867;50.998;4.250;2022-12-07T03:06:48;9.27;;;6.10;;
13592;SDS011;6867;50.998;4.250;2022-12-07T03:09:19;10.67;;;6.57;;
13592;SDS011;6867;50.998;4.250;2022-12-07T03:11:51;11.70;;;7.17;;
13592;SDS011;6867;50.998;4.250;2022-12-07T03:14:25;12.17;;;6.93;;
13592;SDS011;6867;50.998;4.250;2022-12-07T03:17:00;9.90;;;6.63;;
13592;SDS011;6867;50.998;4.250;2022-12-07T03:19:34;8.63;;;6.40;;
13592;SDS011;6867;50.998;4.250;2022-12-07T03:22:04;11.37;;;6.37;;
13592;SDS011;6867;50.998;4.250;2022-12-07T03:24:35;12.20;;;7.27;;
13592;SDS011;6867;50.998;4.250;2022-12-07T03:27:06;9.97;;;6.33;;
13592;SDS011;6867;50.998;4.250;2022-12-07T03:29:36;10.50;;;6.43;;
13592;SDS011;6867;50.998;4.250;2022-12-07T03:32:08;9.53;;;6.53;;
13592;SDS011;6867;50.998;4.250;2022-12-07T03:34:44;9.30;;;6.23;;
13592;SDS011;6867;50.998;4.250;2022-12-07T03:37:15;12.50;;;5.60;;
13592;SDS011;6867;50.998;4.250;2022-12-07T03:39:49;9.87;;;6.10;;
13592;SDS011;6867;50.998;4.250;2022-12-07T03:42:24;9.43;;;6.10;;
13592;SDS011;6867;50.998;4.250;2022-12-07T03:44:51;11.97;;;6.67;;
13592;SDS011;6867;50.998;4.250;2022-12-07T03:47:20;11.47;;;6.07;;
13592;SDS011;6867;50.998;4.250;2022-12-07T03:49:55;9.17;;;5.90;;
13592;SDS011;6867;50.998;4.250;2022-12-07T03:52:26;9.90;;;5.90;;
13592;SDS011;6867;50.998;4.250;2022-12-07T03:55:00;8.67;;;6.13;;
13592;SDS011;6867;50.998;4.250;2022-12-07T03:57:32;8.60;;;6.27;;
13592;SDS011;6867;50.998;4.250;2022-12-07T04:00:00;9.60;;;6.57;;
13592;SDS011;6867;50.998;4.250;2022-12-07T04:02:31;8.40;;;6.20;;
13592;SDS011;6867;50.998;4.250;2022-12-07T04:04:59;9.67;;;6.00;;
13592;SDS011;6867;50.998;4.250;2022-12-07T04:07:25;13.93;;;6.87;;
13592;SDS011;6867;50.998;4.250;2022-12-07T04:09:52;10.23;;;7.07;;
13592;SDS011;6867;50.998;4.250;2022-12-07T04:12:20;12.10;;;6.70;;
13592;SDS011;6867;50.998;4.250;2022-12-07T04:14:46;10.40;;;6.30;;
13592;SDS011;6867;50.998;4.250;2022-12-07T04:17:13;11.23;;;6.90;;
13592;SDS011;6867;50.998;4.250;2022-12-07T04:19:41;12.50;;;7.43;;
13592;SDS011;6867;50.998;4.250;2022-12-07T04:22:08;10.57;;;7.07;;
13592;SDS011;6867;50.998;4.250;2022-12-07T04:24:34;10.93;;;7.23;;
13592;SDS011;6867;50.998;4.250;2022-12-07T04:27:01;12.67;;;7.83;;
13592;SDS011;6867;50.998;4.250;2022-12-07T04:29:28;10.73;;;6.67;;
13592;SDS011;6867;50.998;4.250;2022-12-07T04:31:55;10.87;;;7.40;;
13592;SDS011;6867;50.998;4.250;2022-12-07T04:34:21;15.30;;;7.50;;
13592;SDS011;6867;50.998;4.250;2022-12-07T04:36:49;11.43;;;6.93;;
13592;SDS011;6867;50.998;4.250;2022-12-07T04:39:20;12.03;;;7.03;;
13592;SDS011;6867;50.998;4.250;2022-12-07T04:41:48;10.40;;;6.63;;
13592;SDS011;6867;50.998;4.250;2022-12-07T04:44:16;10.40;;;6.00;;
13592;SDS011;6867;50.998;4.250;2022-12-07T04:46:43;10.07;;;6.87;;
13592;SDS011;6867;50.998;4.250;2022-12-07T04:49:11;9.90;;;6.30;;
13592;SDS011;6867;50.998;4.250;2022-12-07T04:51:38;7.57;;;5.90;;
13592;SDS011;6867;50.998;4.250;2022-12-07T04:54:06;8.23;;;5.80;;
13592;SDS011;6867;50.998;4.250;2022-12-07T04:56:34;9.23;;;6.43;;
13592;SDS011;6867;50.998;4.250;2022-12-07T04:59:01;9.23;;;6.27;;
13592;SDS011;6867;50.998;4.250;2022-12-07T05:01:28;9.67;;;7.20;;
13592;SDS011;6867;50.998;4.250;2022-12-07T05:03:55;11.67;;;7.63;;
13592;SDS011;6867;50.998;4.250;2022-12-07T05:06:22;9.90;;;6.97;;
13592;SDS011;6867;50.998;4.250;2022-12-07T05:08:49;11.47;;;7.27;;
13592;SDS011;6867;50.998;4.250;2022-12-07T05:11:17;9.37;;;6.03;;
13592;SDS011;6867;50.998;4.250;2022-12-07T05:13:58;12.57;;;7.00;;
13592;SDS011;6867;50.998;4.250;2022-12-07T05:16:25;9.87;;;7.00;;
13592;SDS011;6867;50.998;4.250;2022-12-07T05:18:52;10.73;;;7.17;;
13592;SDS011;6867;50.998;4.250;2022-12-07T05:21:18;14.10;;;7.93;;
13592;SDS011;6867;50.998;4.250;2022-12-07T05:23:45;12.13;;;7.50;;
13592;SDS011;6867;50.998;4.250;2022-12-07T05:26:12;13.27;;;8.37;;
13592;SDS011;6867;50.998;4.250;2022-12-07T05:28:40;13.53;;;7.57;;
13592;SDS011;6867;50.998;4.250;2022-12-07T05:31:07;15.77;;;9.00;;
13592;SDS011;6867;50.998;4.250;2022-12-07T05:33:33;14.30;;;8.57;;
13592;SDS011;6867;50.998;4.250;2022-12-07T05:36:00;15.33;;;8.93;;
13592;SDS011;6867;50.998;4.250;2022-12-07T05:38:30;14.00;;;8.90;;
13592;SDS011;6867;50.998;4.250;2022-12-07T05:40:59;13.33;;;8.43;;
13592;SDS011;6867;50.998;4.250;2022-12-07T05:43:27;15.80;;;8.53;;
13592;SDS011;6867;50.998;4.250;2022-12-07T05:45:54;16.30;;;8.60;;
13592;SDS011;6867;50.998;4.250;2022-12-07T05:48:21;16.40;;;8.93;;
13592;SDS011;6867;50.998;4.250;2022-12-07T05:50:48;13.63;;;8.97;;
13592;SDS011;6867;50.998;4.250;2022-12-07T05:53:14;11.93;;;8.90;;
13592;SDS011;6867;50.998;4.250;2022-12-07T05:55:41;12.50;;;8.80;;
13592;SDS011;6867;50.998;4.250;2022-12-07T05:58:08;13.67;;;8.83;;
13592;SDS011;6867;50.998;4.250;2022-12-07T06:00:55;11.83;;;8.57;;
13592;SDS011;6867;50.998;4.250;2022-12-07T06:03:22;13.63;;;7.60;;
13592;SDS011;6867;50.998;4.250;2022-12-07T06:05:49;12.90;;;8.37;;
13592;SDS011;6867;50.998;4.250;2022-12-07T06:08:15;15.33;;;8.17;;
13592;SDS011;6867;50.998;4.250;2022-12-07T06:10:42;14.27;;;9.13;;
13592;SDS011;6867;50.998;4.250;2022-12-07T06:13:09;11.40;;;8.33;;
13592;SDS011;6867;50.998;4.250;2022-12-07T06:15:35;11.40;;;8.10;;
13592;SDS011;6867;50.998;4.250;2022-12-07T06:18:03;12.43;;;8.10;;
13592;SDS011;6867;50.998;4.250;2022-12-07T06:20:30;14.83;;;8.33;;
13592;SDS011;6867;50.998;4.250;2022-12-07T06:22:57;12.53;;;8.03;;
13592;SDS011;6867;50.998;4.250;2022-12-07T06:25:23;10.70;;;8.20;;
13592;SDS011;6867;50.998;4.250;2022-12-07T06:27:50;13.57;;;8.33;;
13592;SDS011;6867;50.998;4.250;2022-12-07T06:30:17;13.27;;;8.37;;
13592;SDS011;6867;50.998;4.250;2022-12-07T06:32:44;12.53;;;8.17;;
13592;SDS011;6867;50.998;4.250;2022-12-07T06:35:12;13.60;;;8.60;;
13592;SDS011;6867;50.998;4.250;2022-12-07T06:37:38;12.87;;;8.30;;
13592;SDS011;6867;50.998;4.250;2022-12-07T06:40:06;10.53;;;7.97;;
13592;SDS011;6867;50.998;4.250;2022-12-07T06:42:33;10.90;;;7.50;;
13592;SDS011;6867;50.998;4.250;2022-12-07T06:45:00;10.40;;;7.43;;
13592;SDS011;6867;50.998;4.250;2022-12-07T06:47:26;12.10;;;7.93;;
13592;SDS011;6867;50.998;4.250;2022-12-07T06:49:53;12.53;;;8.07;;
13592;SDS011;6867;50.998;4.250;2022-12-07T06:52:21;13.63;;;8.33;;
13592;SDS011;6867;50.998;4.250;2022-12-07T06:54:48;12.33;;;8.63;;
13592;SDS011;6867;50.998;4.250;2022-12-07T06:57:15;13.67;;;8.67;;
13592;SDS011;6867;50.998;4.250;2022-12-07T06:59:41;11.27;;;7.83;;
13592;SDS011;6867;50.998;4.250;2022-12-07T07:02:08;14.53;;;9.13;;
13592;SDS011;6867;50.998;4.250;2022-12-07T07:04:36;14.83;;;8.50;;
13592;SDS011;6867;50.998;4.250;2022-12-07T07:07:02;14.07;;;8.20;;
13592;SDS011;6867;50.998;4.250;2022-12-07T07:09:30;9.97;;;8.03;;
13592;SDS011;6867;50.998;4.250;2022-12-07T07:11:57;13.27;;;8.63;;
13592;SDS011;6867;50.998;4.250;2022-12-07T07:14:24;13.20;;;7.87;;
13592;SDS011;6867;50.998;4.250;2022-12-07T07:16:50;10.77;;;7.60;;
13592;SDS011;6867;50.998;4.250;2022-12-07T07:19:17;8.90;;;6.83;;
13592;SDS011;6867;50.998;4.250;2022-12-07T07:21:43;10.73;;;7.67;;
13592;SDS011;6867;50.998;4.250;2022-12-07T07:24:10;11.37;;;7.83;;
13592;SDS011;6867;50.998;4.250;2022-12-07T07:26:38;11.87;;;6.93;;
13592;SDS011;6867;50.998;4.250;2022-12-07T07:29:05;12.67;;;7.40;;
13592;SDS011;6867;50.998;4.250;2022-12-07T07:31:31;11.57;;;6.37;;
13592;SDS011;6867;50.998;4.250;2022-12-07T07:34:00;11.83;;;7.40;;
13592;SDS011;6867;50.998;4.250;2022-12-07T07:36:27;14.27;;;7.17;;
13592;SDS011;6867;50.998;4.250;2022-12-07T07:38:53;10.87;;;7.63;;
13592;SDS011;6867;50.998;4.250;2022-12-07T07:41:20;10.07;;;7.23;;
13592;SDS011;6867;50.998;4.250;2022-12-07T07:43:48;13.23;;;6.47;;
13592;SDS011;6867;50.998;4.250;2022-12-07T07:46:15;15.03;;;7.53;;
13592;SDS011;6867;50.998;4.250;2022-12-07T07:48:42;12.67;;;7.00;;
13592;SDS011;6867;50.998;4.250;2022-12-07T07:51:08;16.33;;;7.90;;
13592;SDS011;6867;50.998;4.250;2022-12-07T07:53:35;12.80;;;7.30;;
13592;SDS011;6867;50.998;4.250;2022-12-07T07:56:02;10.83;;;7.00;;
13592;SDS011;6867;50.998;4.250;2022-12-07T07:58:29;13.00;;;7.13;;
13592;SDS011;6867;50.998;4.250;2022-12-07T08:00:57;10.97;;;7.43;;
13592;SDS011;6867;50.998;4.250;2022-12-07T08:03:30;9.53;;;7.00;;
13592;SDS011;6867;50.998;4.250;2022-12-07T08:05:56;10.37;;;7.20;;
13592;SDS011;6867;50.998;4.250;2022-12-07T08:08:23;10.10;;;7.40;;
13592;SDS011;6867;50.998;4.250;2022-12-07T08:10:50;13.50;;;7.47;;
13592;SDS011;6867;50.998;4.250;2022-12-07T08:13:17;11.27;;;6.77;;
13592;SDS011;6867;50.998;4.250;2022-12-07T08:15:45;12.00;;;6.87;;
13592;SDS011;6867;50.998;4.250;2022-12-07T08:18:14;15.33;;;7.37;;
13592;SDS011;6867;50.998;4.250;2022-12-07T08:20:41;9.33;;;6.73;;
13592;SDS011;6867;50.998;4.250;2022-12-07T08:23:08;13.23;;;7.33;;
13592;SDS011;6867;50.998;4.250;2022-12-07T08:25:36;9.87;;;7.60;;
13592;SDS011;6867;50.998;4.250;2022-12-07T08:28:03;15.60;;;7.50;;
13592;SDS011;6867;50.998;4.250;2022-12-07T08:30:30;13.70;;;8.47;;
13592;SDS011;6867;50.998;4.250;2022-12-07T08:32:57;11.10;;;8.37;;
13592;SDS011;6867;50.998;4.250;2022-12-07T08:35:25;14.87;;;8.13;;
13592;SDS011;6867;50.998;4.250;2022-12-07T08:37:52;18.50;;;10.77;;
13592;SDS011;6867;50.998;4.250;2022-12-07T08:40:19;15.47;;;9.00;;
13592;SDS011;6867;50.998;4.250;2022-12-07T08:42:48;20.37;;;11.80;;
13592;SDS011;6867;50.998;4.250;2022-12-07T08:45:16;16.90;;;9.53;;
13592;SDS011;6867;50.998;4.250;2022-12-07T08:47:44;10.77;;;7.80;;
13592;SDS011;6867;50.998;4.250;2022-12-07T08:50:17;16.03;;;8.30;;
13592;SDS011;6867;50.998;4.250;2022-12-07T08:52:45;11.87;;;8.33;;
13592;SDS011;6867;50.998;4.250;2022-12-07T08:55:15;12.53;;;8.63;;
13592;SDS011;6867;50.998;4.250;2022-12-07T08:57:42;14.80;;;8.17;;
13592;SDS011;6867;50.998;4.250;2022-12-07T09:00:09;18.13;;;8.50;;
13592;SDS011;6867;50.998;4.250;2022-12-07T09:02:37;13.70;;;8.00;;
13592;SDS011;6867;50.998;4.250;2022-12-07T09:05:05;11.47;;;8.07;;
13592;SDS011;6867;50.998;4.250;2022-12-07T09:07:32;16.00;;;8.10;;
13592;SDS011;6867;50.998;4.250;2022-12-07T09:10:02;13.13;;;7.73;;
13592;SDS011;6867;50.998;4.250;2022-12-07T09:12:30;11.57;;;7.83;;
13592;SDS011;6867;50.998;4.250;2022-12-07T09:14:56;17.30;;;8.13;;
13592;SDS011;6867;50.998;4.250;2022-12-07T09:17:23;13.63;;;6.90;;
13592;SDS011;6867;50.998;4.250;2022-12-07T09:19:50;10.80;;;6.47;;
13592;SDS011;6867;50.998;4.250;2022-12-07T09:22:17;10.43;;;7.83;;
13592;SDS011;6867;50.998;4.250;2022-12-07T09:24:44;11.17;;;7.10;;
13592;SDS011;6867;50.998;4.250;2022-12-07T09:27:12;16.70;;;8.23;;
13592;SDS011;6867;50.998;4.250;2022-12-07T09:29:39;13.60;;;7.70;;
13592;SDS011;6867;50.998;4.250;2022-12-07T09:32:05;11.43;;;7.53;;
13592;SDS011;6867;50.998;4.250;2022-12-07T09:34:32;13.23;;;8.53;;
13592;SDS011;6867;50.998;4.250;2022-12-07T09:37:00;14.40;;;8.77;;
13592;SDS011;6867;50.998;4.250;2022-12-07T09:39:28;12.40;;;8.50;;
13592;SDS011;6867;50.998;4.250;2022-12-07T09:41:54;13.37;;;8.57;;
13592;SDS011;6867;50.998;4.250;2022-12-07T09:44:25;17.50;;;7.87;;
13592;SDS011;6867;50.998;4.250;2022-12-07T09:46:53;16.90;;;8.43;;
13592;SDS011;6867;50.998;4.250;2022-12-07T09:49:22;11.60;;;7.83;;
13592;SDS011;6867;50.998;4.250;2022-12-07T09:51:59;12.77;;;8.17;;
13592;SDS011;6867;50.998;4.250;2022-12-07T09:54:27;18.00;;;8.70;;
13592;SDS011;6867;50.998;4.250;2022-12-07T09:56:55;11.20;;;8.40;;
13592;SDS011;6867;50.998;4.250;2022-12-07T09:59:22;10.57;;;7.30;;
13592;SDS011;6867;50.998;4.250;2022-12-07T10:01:50;10.50;;;7.57;;
13592;SDS011;6867;50.998;4.250;2022-12-07T10:04:18;14.03;;;8.53;;
13592;SDS011;6867;50.998;4.250;2022-12-07T10:06:48;11.23;;;7.53;;
13592;SDS011;6867;50.998;4.250;2022-12-07T10:09:17;12.53;;;7.17;;
13592;SDS011;6867;50.998;4.250;2022-12-07T10:11:58;12.33;;;7.03;;
13592;SDS011;6867;50.998;4.250;2022-12-07T10:14:30;13.40;;;6.97;;
13592;SDS011;6867;50.998;4.250;2022-12-07T10:16:59;11.80;;;7.10;;
13592;SDS011;6867;50.998;4.250;2022-12-07T10:19:26;10.47;;;6.03;;
13592;SDS011;6867;50.998;4.250;2022-12-07T10:22:01;12.50;;;6.50;;
13592;SDS011;6867;50.998;4.250;2022-12-07T10:24:30;13.77;;;6.87;;
13592;SDS011;6867;50.998;4.250;2022-12-07T10:26:58;10.93;;;5.83;;
13592;SDS011;6867;50.998;4.250;2022-12-07T10:29:28;11.57;;;6.00;;
13592;SDS011;6867;50.998;4.250;2022-12-07T10:31:57;13.10;;;6.47;;
13592;SDS011;6867;50.998;4.250;2022-12-07T10:34:27;10.97;;;6.33;;
13592;SDS011;6867;50.998;4.250;2022-12-07T10:37:07;10.07;;;6.00;;
13592;SDS011;6867;50.998;4.250;2022-12-07T10:39:41;14.07;;;7.43;;
13592;SDS011;6867;50.998;4.250;2022-12-07T10:42:15;10.87;;;7.17;;
13592;SDS011;6867;50.998;4.250;2022-12-07T10:44:43;9.70;;;6.67;;
13592;SDS011;6867;50.998;4.250;2022-12-07T10:52:59;9.00;;;6.00;;
13592;SDS011;6867;50.998;4.250;2022-12-07T10:55:42;14.77;;;6.57;;
13592;SDS011;6867;50.998;4.250;2022-12-07T10:58:29;11.73;;;6.73;;
13592;SDS011;6867;50.998;4.250;2022-12-07T11:01:04;9.93;;;6.47;;
13592;SDS011;6867;50.998;4.250;2022-12-07T11:03:47;11.97;;;7.37;;
13592;SDS011;6867;50.998;4.250;2022-12-07T11:06:30;8.57;;;6.17;;
13592;SDS011;6867;50.998;4.250;2022-12-07T11:09:04;14.97;;;7.00;;
13592;SDS011;6867;50.998;4.250;2022-12-07T11:11:48;10.57;;;7.60;;
13592;SDS011;6867;50.998;4.250;2022-12-07T11:14:22;12.77;;;7.13;;
13592;SDS011;6867;50.998;4.250;2022-12-07T11:16:56;17.37;;;7.17;;
13592;SDS011;6867;50.998;4.250;2022-12-07T11:19:34;18.00;;;7.57;;
13592;SDS011;6867;50.998;4.250;2022-12-07T11:22:17;12.30;;;6.67;;
13592;SDS011;6867;50.998;4.250;2022-12-07T11:24:53;13.43;;;7.30;;
13592;SDS011;6867;50.998;4.250;2022-12-07T11:27:30;9.13;;;6.53;;
13592;SDS011;6867;50.998;4.250;2022-12-07T11:30:08;9.00;;;6.47;;
13592;SDS011;6867;50.998;4.250;2022-12-07T11:32:45;15.77;;;6.90;;
13592;SDS011;6867;50.998;4.250;2022-12-07T11:35:33;16.70;;;7.80;;
13592;SDS011;6867;50.998;4.250;2022-12-07T11:38:08;12.93;;;7.40;;
13592;SDS011;6867;50.998;4.250;2022-12-07T11:40:38;14.30;;;7.60;;
13592;SDS011;6867;50.998;4.250;2022-12-07T11:43:11;11.47;;;6.80;;
13592;SDS011;6867;50.998;4.250;2022-12-07T11:45:44;7.97;;;6.20;;
13592;SDS011;6867;50.998;4.250;2022-12-07T11:48:14;16.17;;;6.67;;
13592;SDS011;6867;50.998;4.250;2022-12-07T11:50:48;12.23;;;5.83;;
13592;SDS011;6867;50.998;4.250;2022-12-07T11:53:20;13.70;;;6.27;;
13592;SDS011;6867;50.998;4.250;2022-12-07T11:55:50;14.77;;;5.70;;
13592;SDS011;6867;50.998;4.250;2022-12-07T11:58:23;12.07;;;5.23;;
13592;SDS011;6867;50.998;4.250;2022-12-07T12:01:08;9.57;;;5.17;;
13592;SDS011;6867;50.998;4.250;2022-12-07T12:03:42;8.30;;;4.77;;
13592;SDS011;6867;50.998;4.250;2022-12-07T12:06:13;8.57;;;4.10;;
13592;SDS011;6867;50.998;4.250;2022-12-07T12:08:41;6.90;;;4.33;;
13592;SDS011;6867;50.998;4.250;2022-12-07T12:11:15;9.87;;;3.90;;
13592;SDS011;6867;50.998;4.250;2022-12-07T12:14:02;8.33;;;3.43;;
13592;SDS011;6867;50.998;4.250;2022-12-07T12:16:49;2.47;;;2.07;;
13592;SDS011;6867;50.998;4.250;2022-12-07T12:19:28;12.07;;;2.60;;
13592;SDS011;6867;50.998;4.250;2022-12-07T12:22:04;4.27;;;2.20;;
13592;SDS011;6867;50.998;4.250;2022-12-07T12:24:38;3.60;;;2.47;;
13592;SDS011;6867;50.998;4.250;2022-12-07T12:27:07;9.30;;;3.23;;
13592;SDS011;6867;50.998;4.250;2022-12-07T12:29:41;4.37;;;2.60;;
13592;SDS011;6867;50.998;4.250;2022-12-07T12:32:14;5.03;;;3.03;;
13592;SDS011;6867;50.998;4.250;2022-12-07T12:34:57;5.07;;;2.63;;
13592;SDS011;6867;50.998;4.250;2022-12-07T12:37:41;4.80;;;3.07;;
13592;SDS011;6867;50.998;4.250;2022-12-07T12:55:17;4.57;;;2.57;;
13592;SDS011;6867;50.998;4.250;2022-12-07T12:57:47;3.60;;;2.00;;
13592;SDS011;6867;50.998;4.250;2022-12-07T13:00:39;6.00;;;2.67;;
13592;SDS011;6867;50.998;4.250;2022-12-07T13:03:16;7.40;;;2.50;;
13592;SDS011;6867;50.998;4.250;2022-12-07T13:05:48;3.87;;;2.47;;
13592;SDS011;6867;50.998;4.250;2022-12-07T13:08:45;5.73;;;3.00;;
13592;SDS011;6867;50.998;4.250;2022-12-07T13:11:17;7.30;;;2.60;;
13592;SDS011;6867;50.998;4.250;2022-12-07T13:13:46;10.40;;;2.83;;
13592;SDS011;6867;50.998;4.250;2022-12-07T13:22:36;4.33;;;2.20;;
13592;SDS011;6867;50.998;4.250;2022-12-07T13:25:09;11.50;;;2.80;;
13592;SDS011;6867;50.998;4.250;2022-12-07T13:27:40;3.67;;;2.37;;
13592;SDS011;6867;50.998;4.250;2022-12-07T13:30:13;4.47;;;2.20;;
13592;SDS011;6867;50.998;4.250;2022-12-07T13:32:41;5.57;;;2.80;;
13592;SDS011;6867;50.998;4.250;2022-12-07T13:35:27;5.17;;;2.50;;
13592;SDS011;6867;50.998;4.250;2022-12-07T13:37:55;2.50;;;1.97;;
13592;SDS011;6867;50.998;4.250;2022-12-07T13:40:23;4.53;;;2.63;;
13592;SDS011;6867;50.998;4.250;2022-12-07T13:42:58;3.70;;;2.87;;
13592;SDS011;6867;50.998;4.250;2022-12-07T13:45:26;4.93;;;2.50;;
13592;SDS011;6867;50.998;4.250;2022-12-07T13:48:08;3.33;;;2.87;;
13592;SDS011;6867;50.998;4.250;2022-12-07T13:50:40;5.80;;;2.60;;
13592;SDS011;6867;50.998;4.250;2022-12-07T13:53:10;2.97;;;2.67;;
13592;SDS011;6867;50.998;4.250;2022-12-07T13:55:44;4.00;;;2.90;;
13592;SDS011;6867;50.998;4.250;2022-12-07T13:58:13;4.00;;;2.70;;
13592;SDS011;6867;50.998;4.250;2022-12-07T14:00:40;3.20;;;2.60;;
13592;SDS011;6867;50.998;4.250;2022-12-07T14:03:25;3.20;;;2.37;;
13592;SDS011;6867;50.998;4.250;2022-12-07T14:06:12;4.17;;;2.90;;
13592;SDS011;6867;50.998;4.250;2022-12-07T14:08:42;6.53;;;3.33;;
13592;SDS011;6867;50.998;4.250;2022-12-07T14:11:11;4.27;;;2.60;;
13592;SDS011;6867;50.998;4.250;2022-12-07T14:13:49;6.50;;;2.63;;
13592;SDS011;6867;50.998;4.250;2022-12-07T14:16:26;3.37;;;2.40;;
13592;SDS011;6867;50.998;4.250;2022-12-07T14:18:54;3.83;;;2.87;;
13592;SDS011;6867;50.998;4.250;2022-12-07T14:21:23;4.53;;;2.73;;
13592;SDS011;6867;50.998;4.250;2022-12-07T14:24:08;4.87;;;2.83;;
13592;SDS011;6867;50.998;4.250;2022-12-07T14:26:37;3.40;;;2.57;;
13592;SDS011;6867;50.998;4.250;2022-12-07T14:29:30;4.37;;;2.60;;
13592;SDS011;6867;50.998;4.250;2022-12-07T14:32:08;5.90;;;2.50;;
13592;SDS011;6867;50.998;4.250;2022-12-07T14:34:57;4.87;;;2.03;;
13592;SDS011;6867;50.998;4.250;2022-12-07T14:37:25;2.87;;;2.20;;
13592;SDS011;6867;50.998;4.250;2022-12-07T14:39:53;5.43;;;2.00;;
13592;SDS011;6867;50.998;4.250;2022-12-07T14:42:20;3.00;;;1.60;;
13592;SDS011;6867;50.998;4.250;2022-12-07T14:44:51;2.07;;;1.60;;
13592;SDS011;6867;50.998;4.250;2022-12-07T14:47:18;3.63;;;1.70;;
13592;SDS011;6867;50.998;4.250;2022-12-07T14:49:45;2.70;;;1.40;;
13592;SDS011;6867;50.998;4.250;2022-12-07T14:52:13;3.37;;;1.53;;
13592;SDS011;6867;50.998;4.250;2022-12-07T14:54:43;8.90;;;3.10;;
13592;SDS011;6867;50.998;4.250;2022-12-07T14:57:10;4.77;;;1.50;;
13592;SDS011;6867;50.998;4.250;2022-12-07T14:59:37;6.27;;;2.80;;
13592;SDS011;6867;50.998;4.250;2022-12-07T15:02:05;5.13;;;1.50;;
13592;SDS011;6867;50.998;4.250;2022-12-07T15:04:32;4.73;;;1.67;;
13592;SDS011;6867;50.998;4.250;2022-12-07T15:07:00;2.43;;;1.67;;
13592;SDS011;6867;50.998;4.250;2022-12-07T15:09:29;4.33;;;1.80;;
13592;SDS011;6867;50.998;4.250;2022-12-07T15:11:56;2.80;;;1.50;;
13592;SDS011;6867;50.998;4.250;2022-12-07T15:14:23;2.13;;;1.47;;
13592;SDS011;6867;50.998;4.250;2022-12-07T15:16:50;3.80;;;1.87;;
13592;SDS011;6867;50.998;4.250;2022-12-07T15:19:19;4.50;;;2.63;;
13592;SDS011;6867;50.998;4.250;2022-12-07T15:21:48;5.77;;;2.73;;
13592;SDS011;6867;50.998;4.250;2022-12-07T15:24:15;2.30;;;1.90;;
13592;SDS011;6867;50.998;4.250;2022-12-07T15:26:42;4.10;;;2.20;;
13592;SDS011;6867;50.998;4.250;2022-12-07T15:29:09;3.23;;;1.80;;
13592;SDS011;6867;50.998;4.250;2022-12-07T15:31:37;4.77;;;2.00;;
13592;SDS011;6867;50.998;4.250;2022-12-07T15:34:04;6.17;;;2.50;;
13592;SDS011;6867;50.998;4.250;2022-12-07T15:36:32;5.87;;;2.50;;
13592;SDS011;6867;50.998;4.250;2022-12-07T15:39:00;4.07;;;2.20;;
13592;SDS011;6867;50.998;4.250;2022-12-07T15:41:27;4.93;;;2.33;;